Alamogordo White Sands Regional Airport
KALM : now visible

Aeroporto :











RITROVATECI SU...

 
LOGIN :

Iscrizione | Disclaimer

   EN    FR    IT 

 









Sommario :    VFR   VFR Marginale   IFR   IFR Intensivo   IFR Molto Intensivo
Visibilità : 
Base nubi : 
>= 8 km
>= 3000ft
5 / 8 km
1000 / 3000 ft
1500m / 5 km
500 / 1000 ft
800 / 1500m
200 / 500 ft
< 800m
< 200 ft
Simboli :   Temporali  Nebbia  Neve Forte  Precipitazioni Forti  Vento > 20 kt






- Altitudine del aeroporto : 4200 ft
- Codice IATA : ALM


KALM - Alamogordo White Sands Regional

ULTIMO METAR :
  • 051835Z AUTO 00000KT 10SM CLR 07/M13 A3031 RMK AO2

METARs OBSOLETI :
  • 051815Z AUTO 00000KT 10SM CLR 05/M14 A3032 RMK AO2
  • 051755Z AUTO 27003KT 10SM CLR 05/M15 A3032 RMK AO2
  • 051735Z AUTO 25005KT 10SM CLR 05/M15 A3032 RMK AO2
  • 051715Z AUTO 26006KT 10SM CLR 05/M15 A3033 RMK AO2
  • 051655Z AUTO 21003KT 10SM CLR 04/M12 A3033 RMK AO2
  • 051635Z AUTO 00000KT 10SM CLR 03/M14 A3033 RMK AO2
  • 051615Z AUTO 00000KT 10SM CLR 03/M13 A3033 RMK AO2
  • 051555Z AUTO 00000KT 10SM CLR 01/M13 A3033 RMK AO2
  • 051535Z AUTO 00000KT 10SM CLR 00/M14 A3033 RMK AO2

TAF N/A
FIR KZAB / America del Nord



MetMap, La meteo Aeronautica in un colpo d'occhio ! - Copyright ORBIFLY Dicembre 2007 - Disclaimer

ORBIFLY MET'MAP TEAM :

Programmazione e sviluppo : Alexandra Zaïnal
Concezione : Baudouin d'Aumeries
Aiuto per la programmazione : Marc-Olivier Méhu
Supporto tecnico e logistico : Manuel Goepfert
Aiuto per la traduzione : Arnaldo La Scala

Contatto : metmap@orbifly.com




FONTI E CREDITI :

   NOAA       Earth
Advisory